Time;durP1;ratioP1;P1;durP2;ratioP2;P2;SDS_P1;SDS_P2;PMS_P1;PMS_P2;Temp;Humidity;BMP_temperature;BMP_pressure;BME280_temperature;BME280_humidity;BME280_pressure;Samples;Min_cycle;Max_cycle;Signal;HPM_P1;HPM_P2
2022/12/25 00:01:58;;;;;;;;;;;;;;;9.51;77.85;99625.88;5021205;28;20378;-57
2022/12/25 00:04:24;;;;;;;;;;;;;;;9.97;75.00;99644.75;5020990;28;19917;-56
2022/12/25 00:06:49;;;;;;;;;;;;;;;10.14;76.44;99637.53;5020977;28;20283;-57
2022/12/25 00:09:14;;;;;;;;;;;;;;;10.03;82.28;99622.34;5020680;28;19921;-57
2022/12/25 00:11:39;;;;;;;;;;;;;;;10.63;84.09;99621.09;5021360;28;19921;-57
2022/12/25 00:14:05;;;;;;;;;;;;;;;10.49;91.90;99596.53;5020847;28;19929;-57
2022/12/25 00:16:30;;;;;;;;;;;;;;;9.87;94.76;99555.75;5020610;28;19924;-57
2022/12/25 00:18:55;;;;;;;;;;;;;;;10.15;92.41;99576.63;5018146;28;19921;-56
2022/12/25 00:21:21;;;;;;;;;;;;;;;10.56;95.06;99586.06;5021540;28;19917;-57
2022/12/25 00:23:46;;;;;;;;;;;;;;;10.51;100.00;99561.28;5021173;28;20428;-57
2022/12/25 00:26:13;;;;;;;;;;;;;;;10.34;100.00;99535.94;5020481;28;19927;-56
2022/12/25 00:28:38;;;;;;;;;;;;;;;10.31;100.00;99523.97;5018121;28;19966;-57
2022/12/25 00:31:07;;;;;;;;;;;;;;;10.12;100.00;99522.66;5020577;28;20465;-57
2022/12/25 00:33:36;;;;;;;;;;;;;;;10.43;100.00;99549.44;5019582;28;20369;-56
2022/12/25 00:36:02;;;;;;;;;;;;;;;10.85;100.00;99543.31;5020057;28;19917;-56
2022/12/25 00:38:27;;;;;;;;;;;;;;;10.36;100.00;99513.56;5019699;28;19921;-57
2022/12/25 00:40:53;;;;;;;;;;;;;;;10.15;100.00;99509.69;5019072;28;19995;-56
2022/12/25 00:43:18;;;;;;;;;;;;;;;10.21;100.00;99519.88;5021245;28;19921;-56
2022/12/25 00:45:43;;;;;;;;;;;;;;;9.97;100.00;99511.81;5018269;28;20789;-57
2022/12/25 00:48:08;;;;;;;;;;;;;;;10.17;100.00;99528.53;5020691;28;19917;-56
2022/12/25 00:50:36;;;;;;;;;;;;;;;10.14;100.00;99531.19;5021248;28;19921;-56
2022/12/25 00:53:01;;;;;;;;;;;;;;;10.27;100.00;99545.47;5022507;28;19932;-57
2022/12/25 00:55:27;;;;;;;;;;;;;;;10.02;100.00;99546.00;5024675;28;19921;-56
2022/12/25 00:57:52;;;;;;;;;;;;;;;10.16;99.70;99568.03;5024298;28;19921;-56
2022/12/25 01:00:17;;;;;;;;;;;;;;;10.00;97.19;99562.34;5022769;28;20531;-56
2022/12/25 01:02:42;;;;;;;;;;;;;;;9.60;90.92;99574.28;5023503;28;20040;-56
2022/12/25 01:05:08;;;;;;;;;;;;;;;9.17;83.69;99595.59;5024225;28;20028;-56
2022/12/25 01:07:33;;;;;;;;;;;;;;;9.73;68.85;99664.06;5024447;28;19924;-56
2022/12/25 01:12:42;;;;;;;;;;;;;;;9.26;58.40;99701.69;5023210;28;19971;-56
2022/12/25 01:15:08;;;;;;;;;;;;;;;9.76;49.73;99759.16;5024112;28;20278;-55
2022/12/25 01:17:33;;;;;;;;;;;;;;;9.62;52.33;99773.13;5023410;28;20005;-56
2022/12/25 01:19:59;;;;;;;;;;;;;;;9.64;50.55;99791.09;5022392;28;20845;-56
2022/12/25 01:22:24;;;;;;;;;;;;;;;9.93;48.83;99824.06;5023897;28;19921;-56
2022/12/25 01:24:49;;;;;;;;;;;;;;;10.13;48.76;99851.22;5023190;28;19962;-57
2022/12/25 01:27:14;;;;;;;;;;;;;;;10.17;50.72;99858.00;5023690;28;19924;-56
2022/12/25 01:29:39;;;;;;;;;;;;;;;10.15;51.72;99855.47;5023013;28;19917;-56
2022/12/25 01:32:05;;;;;;;;;;;;;;;9.87;51.72;99847.31;5022511;28;19936;-56
2022/12/25 01:34:30;;;;;;;;;;;;;;;10.30;51.04;99869.81;5021799;28;20322;-56
2022/12/25 01:36:55;;;;;;;;;;;;;;;10.36;52.56;99868.88;5022996;28;19998;-56
2022/12/25 01:39:20;;;;;;;;;;;;;;;10.07;53.49;99851.31;5021807;28;20374;-57
2022/12/25 01:41:47;;;;;;;;;;;;;;;9.90;52.43;99860.16;5021574;28;20470;-56
2022/12/25 01:44:15;;;;;;;;;;;;;;;9.98;52.68;99878.03;5021856;28;19940;-56
2022/12/25 01:46:41;;;;;;;;;;;;;;;10.26;50.65;99917.03;5022686;28;20345;-56
2022/12/25 01:49:17;;;;;;;;;;;;;;;10.64;51.49;99936.19;5022045;28;19925;-56
2022/12/25 01:51:43;;;;;;;;;;;;;;;10.68;54.13;99922.41;5021028;28;19921;-56
2022/12/25 01:54:13;;;;;;;;;;;;;;;10.68;55.65;99891.47;5021456;28;19921;-57
2022/12/25 01:56:38;;;;;;;;;;;;;;;10.32;55.93;99878.38;5020509;28;19925;-56
2022/12/25 01:59:03;;;;;;;;;;;;;;;10.64;55.24;99895.81;5021536;28;20592;-57
2022/12/25 02:01:29;;;;;;;;;;;;;;;10.58;55.00;99884.78;5020869;28;19924;-56
2022/12/25 02:03:54;;;;;;;;;;;;;;;10.64;56.15;99876.94;5021248;28;19921;-57
2022/12/25 02:06:19;;;;;;;;;;;;;;;10.94;55.51;99878.09;5020849;28;20004;-56
2022/12/25 02:08:45;;;;;;;;;;;;;;;10.45;56.85;99851.53;5020496;28;19932;-57
2022/12/25 02:11:55;;;;;;;;;;;;;;;10.62;55.97;99855.53;5022275;28;19925;-57
2022/12/25 02:13:55;;;;;;;;;;;;;;;10.76;56.32;99840.66;5021543;28;19921;-57
2022/12/25 02:16:21;;;;;;;;;;;;;;;11.01;53.90;99858.22;5020971;28;19921;-57
2022/12/25 02:18:48;;;;;;;;;;;;;;;11.26;55.24;99856.81;5020212;28;19921;-57
2022/12/25 02:21:19;;;;;;;;;;;;;;;10.82;58.58;99822.50;5020176;28;20377;-57
2022/12/25 02:23:45;;;;;;;;;;;;;;;11.21;56.60;99825.13;5022333;28;20802;-56
2022/12/25 02:26:35;;;;;;;;;;;;;;;10.88;59.20;99800.94;5021498;28;19925;-57
2022/12/25 02:29:19;;;;;;;;;;;;;;;10.91;57.02;99820.63;5019390;28;19983;-57
2022/12/25 02:31:47;;;;;;;;;;;;;;;10.89;55.35;99829.22;5020408;28;20396;-57
2022/12/25 02:34:33;;;;;;;;;;;;;;;10.88;56.39;99832.69;5021860;28;19928;-57
2022/12/25 02:37:16;;;;;;;;;;;;;;;10.84;57.36;99810.44;5019966;28;19951;-56
2022/12/25 02:39:58;;;;;;;;;;;;;;;10.73;56.57;99812.38;5019855;28;19928;-57
2022/12/25 03:07:21;;;;;;;;;;;;;;;11.24;53.53;99891.25;5021292;28;19928;-57
2022/12/25 03:12:47;;;;;;;;;;;;;;;11.37;56.41;99864.34;5020717;28;19971;-57
2022/12/25 03:17:58;;;;;;;;;;;;;;;11.77;64.54;99783.47;5021215;28;20400;-58
2022/12/25 03:28:40;;;;;;;;;;;;;;;10.88;74.94;99672.94;5020004;28;20428;-57
2022/12/25 03:31:13;;;;;;;;;;;;;;;10.86;65.79;99726.22;5019261;28;19925;-57
2022/12/25 04:37:27;;;;;;;;;;;;;;;11.05;57.72;99769.63;5024300;28;20018;-57
2022/12/25 04:39:52;;;;;;;;;;;;;;;11.27;56.22;99788.91;5021969;28;19999;-57
2022/12/25 04:42:18;;;;;;;;;;;;;;;11.29;55.54;99797.47;5023663;28;19940;-57
2022/12/25 04:44:43;;;;;;;;;;;;;;;11.05;55.41;99809.13;5023109;28;19921;-57
2022/12/25 04:47:08;;;;;;;;;;;;;;;11.29;53.59;99823.25;5023904;28;19921;-57
2022/12/25 04:49:33;;;;;;;;;;;;;;;11.30;54.78;99822.34;5022899;28;20503;-57
2022/12/25 04:51:59;;;;;;;;;;;;;;;11.24;55.04;99809.63;5023147;28;19928;-57
2022/12/25 04:54:24;;;;;;;;;;;;;;;11.47;54.91;99821.13;5023440;28;19920;-57
2022/12/25 04:56:49;;;;;;;;;;;;;;;11.22;57.00;99793.34;5021306;28;19921;-57
2022/12/25 04:59:14;;;;;;;;;;;;;;;11.45;55.95;99802.28;5022670;28;19983;-57
2022/12/25 05:01:39;;;;;;;;;;;;;;;11.80;55.42;99803.19;5023184;28;19963;-57
2022/12/25 05:04:05;;;;;;;;;;;;;;;11.72;58.03;99786.16;5023428;28;19921;-57
2022/12/25 05:06:30;;;;;;;;;;;;;;;11.54;58.48;99763.38;5024754;28;19921;-57
2022/12/25 05:08:55;;;;;;;;;;;;;;;11.80;56.32;99782.53;5023811;28;19970;-57
2022/12/25 05:11:20;;;;;;;;;;;;;;;11.74;57.81;99768.03;5024172;28;19921;-57
2022/12/25 05:13:46;;;;;;;;;;;;;;;11.00;61.65;99727.66;5023973;28;20003;-57
2022/12/25 05:16:15;;;;;;;;;;;;;;;11.31;58.10;99745.84;5023804;28;20465;-57
2022/12/25 05:18:40;;;;;;;;;;;;;;;11.38;56.45;99762.03;5022737;28;19971;-57
2022/12/25 05:21:06;;;;;;;;;;;;;;;11.35;56.41;99759.53;5024035;28;19932;-57
2022/12/25 05:23:32;;;;;;;;;;;;;;;10.88;55.48;99754.53;5023035;28;20386;-57
2022/12/25 05:25:58;;;;;;;;;;;;;;;11.09;54.20;99779.00;5024140;28;19944;-57
2022/12/25 05:28:23;;;;;;;;;;;;;;;11.38;53.07;99803.28;5022292;28;19921;-57
2022/12/25 05:30:48;;;;;;;;;;;;;;;11.63;54.89;99791.53;5025679;28;20003;-57
2022/12/25 05:33:14;;;;;;;;;;;;;;;11.35;57.02;99762.94;5024301;28;19964;-57
2022/12/25 05:35:39;;;;;;;;;;;;;;;11.04;58.87;99737.03;5025960;28;19956;-57
2022/12/25 05:38:05;;;;;;;;;;;;;;;10.91;58.62;99741.59;5024936;28;19978;-57
2022/12/25 05:40:30;;;;;;;;;;;;;;;10.94;56.59;99759.56;5023791;28;19918;-57
2022/12/25 05:42:55;;;;;;;;;;;;;;;10.76;57.73;99744.47;5024187;28;19968;-57
2022/12/25 05:45:20;;;;;;;;;;;;;;;10.75;55.32;99763.41;5025846;28;19979;-57
2022/12/25 05:47:46;;;;;;;;;;;;;;;10.84;54.41;99779.53;5025271;28;19921;-57
2022/12/25 05:50:11;;;;;;;;;;;;;;;11.20;53.84;99795.09;5023484;28;19925;-57
2022/12/25 05:52:36;;;;;;;;;;;;;;;11.13;55.16;99780.63;5025141;28;19917;-57
2022/12/25 05:55:01;;;;;;;;;;;;;;;10.68;54.93;99763.53;5024731;28;19917;-57
2022/12/25 05:57:27;;;;;;;;;;;;;;;11.19;53.04;99801.13;5024656;28;19921;-57
2022/12/25 05:59:52;;;;;;;;;;;;;;;10.97;55.65;99774.97;5021302;28;19921;-57
2022/12/25 06:02:18;;;;;;;;;;;;;;;10.87;56.67;99760.56;5024386;28;20092;-57
2022/12/25 06:04:43;;;;;;;;;;;;;;;11.33;52.95;99787.91;5024565;28;20016;-57
2022/12/25 06:07:08;;;;;;;;;;;;;;;10.89;53.78;99775.09;5024671;28;19921;-56
2022/12/25 06:09:33;;;;;;;;;;;;;;;10.78;53.37;99779.63;5021130;28;20357;-57
2022/12/25 06:11:58;;;;;;;;;;;;;;;10.97;52.71;99793.00;5022686;28;19995;-58
2022/12/25 06:14:24;;;;;;;;;;;;;;;11.15;54.15;99799.47;5021830;28;19995;-57
2022/12/25 06:16:50;;;;;;;;;;;;;;;11.15;54.37;99784.00;5023119;28;20471;-57
2022/12/25 06:19:15;;;;;;;;;;;;;;;10.82;55.13;99765.81;5021635;28;20018;-57
2022/12/25 06:21:40;;;;;;;;;;;;;;;11.33;53.02;99792.22;5022419;28;19952;-57
2022/12/25 06:24:05;;;;;;;;;;;;;;;11.37;54.42;99770.66;5021419;28;19998;-58
2022/12/25 06:26:31;;;;;;;;;;;;;;;11.35;55.72;99754.38;5022600;28;19960;-57
2022/12/25 06:28:56;;;;;;;;;;;;;;;10.88;57.84;99713.31;5021861;28;20405;-57
2022/12/25 06:31:22;;;;;;;;;;;;;;;10.82;56.88;99729.75;5022030;28;20761;-57
2022/12/25 06:33:47;;;;;;;;;;;;;;;10.71;56.13;99739.41;5019950;28;19921;-57
2022/12/25 06:36:16;;;;;;;;;;;;;;;10.59;55.32;99737.09;5022231;28;19921;-57
2022/12/25 06:38:42;;;;;;;;;;;;;;;10.81;54.08;99769.28;5021515;28;19932;-57
2022/12/25 06:41:14;;;;;;;;;;;;;;;10.60;55.06;99755.09;5021450;28;19921;-58
2022/12/25 06:43:40;;;;;;;;;;;;;;;10.72;54.89;99769.47;5020013;28;19921;-57
2022/12/25 06:46:06;;;;;;;;;;;;;;;10.81;54.08;99774.44;5020780;28;19994;-57
2022/12/25 06:48:32;;;;;;;;;;;;;;;10.51;55.19;99754.44;5021187;28;19928;-57
2022/12/25 06:50:57;;;;;;;;;;;;;;;10.83;52.35;99788.13;5023904;28;19925;-57
2022/12/25 06:53:22;;;;;;;;;;;;;;;10.66;54.69;99772.16;5023483;28;19920;-57
2022/12/25 06:55:48;;;;;;;;;;;;;;;10.69;54.05;99790.13;5023719;28;19921;-58
2022/12/25 06:58:13;;;;;;;;;;;;;;;10.36;54.26;99779.59;5022151;28;19921;-58
2022/12/25 07:00:38;;;;;;;;;;;;;;;10.37;54.15;99788.16;5022656;28;19967;-57
2022/12/25 07:03:03;;;;;;;;;;;;;;;10.58;53.57;99799.78;5020874;28;19917;-57
2022/12/25 07:05:29;;;;;;;;;;;;;;;10.29;55.00;99792.63;5022733;28;20670;-57
2022/12/25 07:07:54;;;;;;;;;;;;;;;10.25;55.93;99802.94;5023832;28;20382;-57
2022/12/25 07:10:19;;;;;;;;;;;;;;;10.81;55.17;99836.28;5022500;28;20398;-57
2022/12/25 07:12:44;;;;;;;;;;;;;;;10.63;58.56;99810.88;5024122;28;20372;-57
2022/12/25 07:15:09;;;;;;;;;;;;;;;10.63;57.46;99805.72;5022573;28;20789;-57
2022/12/25 07:17:35;;;;;;;;;;;;;;;10.92;57.45;99806.84;5021451;28;19917;-58
2022/12/25 07:20:00;;;;;;;;;;;;;;;10.97;57.85;99789.56;5020181;28;20028;-57
2022/12/25 07:22:26;;;;;;;;;;;;;;;10.82;57.47;99776.13;5021140;28;19921;-57
2022/12/25 07:24:52;;;;;;;;;;;;;;;10.75;57.64;99771.97;5020349;28;21004;-57
2022/12/25 07:27:17;;;;;;;;;;;;;;;10.56;58.63;99747.44;5021587;28;19920;-57
2022/12/25 07:29:42;;;;;;;;;;;;;;;10.59;58.98;99737.94;5020307;28;19921;-57
2022/12/25 07:32:07;;;;;;;;;;;;;;;10.97;57.43;99749.19;5020643;28;19940;-57
2022/12/25 07:34:33;;;;;;;;;;;;;;;10.67;58.69;99706.88;5020938;28;20023;-57
2022/12/25 07:36:58;;;;;;;;;;;;;;;11.30;55.98;99706.31;5021366;28;20007;-58
2022/12/25 07:39:23;;;;;;;;;;;;;;;11.24;57.97;99679.81;5020961;28;19921;-57
2022/12/25 07:41:48;;;;;;;;;;;;;;;10.93;59.53;99662.53;5020117;28;19917;-58
2022/12/25 07:44:14;;;;;;;;;;;;;;;11.10;58.78;99662.13;5020744;28;20014;-57
2022/12/25 07:46:39;;;;;;;;;;;;;;;10.93;59.68;99646.22;5019117;28;20004;-57
2022/12/25 07:49:05;;;;;;;;;;;;;;;10.34;61.75;99606.28;5020786;28;19945;-57
2022/12/25 07:51:30;;;;;;;;;;;;;;;10.50;56.70;99650.56;5021358;28;20606;-57
2022/12/25 07:53:55;;;;;;;;;;;;;;;10.32;56.89;99664.69;5021224;28;19925;-57
2022/12/25 07:56:21;;;;;;;;;;;;;;;10.98;55.21;99729.41;5020082;28;19929;-58
2022/12/25 07:58:47;;;;;;;;;;;;;;;10.77;56.43;99718.69;5021091;28;20420;-59
2022/12/25 08:01:15;;;;;;;;;;;;;;;10.62;58.05;99695.81;5023216;28;19921;-58
2022/12/25 08:03:40;;;;;;;;;;;;;;;10.81;56.48;99685.97;5023539;28;19967;-59
2022/12/25 08:06:06;;;;;;;;;;;;;;;10.58;58.26;99650.41;5024427;28;19932;-59
2022/12/25 08:08:32;;;;;;;;;;;;;;;11.08;54.98;99671.59;5024743;28;19940;-59
2022/12/25 08:10:57;;;;;;;;;;;;;;;10.54;57.98;99646.22;5025227;28;19925;-59
2022/12/25 08:13:22;;;;;;;;;;;;;;;10.85;56.41;99667.81;5022951;28;19928;-59
2022/12/25 08:15:47;;;;;;;;;;;;;;;10.93;55.81;99671.97;5024284;28;20644;-58
2022/12/25 08:18:13;;;;;;;;;;;;;;;11.07;56.62;99667.34;5023236;28;19921;-56
2022/12/25 08:20:38;;;;;;;;;;;;;;;10.86;58.36;99643.78;5024959;28;19924;-58
2022/12/25 08:23:03;;;;;;;;;;;;;;;10.92;57.05;99639.34;5024495;28;19917;-59
2022/12/25 08:25:28;;;;;;;;;;;;;;;11.35;56.28;99651.22;5023246;28;19924;-58
2022/12/25 08:27:54;;;;;;;;;;;;;;;11.13;56.59;99630.25;5023804;28;19928;-58
2022/12/25 08:30:19;;;;;;;;;;;;;;;10.86;57.57;99607.69;5023908;28;19913;-58
2022/12/25 08:32:44;;;;;;;;;;;;;;;11.16;53.30;99643.09;5021511;28;19924;-59
2022/12/25 08:35:09;;;;;;;;;;;;;;;10.89;53.62;99638.53;5024405;28;19921;-59
2022/12/25 08:37:34;;;;;;;;;;;;;;;11.03;53.99;99648.53;5024298;28;19917;-58
2022/12/25 08:40:00;;;;;;;;;;;;;;;10.93;53.96;99641.91;5022332;28;19978;-58
2022/12/25 08:42:25;;;;;;;;;;;;;;;10.87;53.50;99655.75;5023238;28;19917;-58
2022/12/25 08:44:50;;;;;;;;;;;;;;;10.72;53.02;99668.13;5023579;28;19928;-58
2022/12/25 08:47:15;;;;;;;;;;;;;;;10.46;54.57;99660.09;5023647;28;19917;-59
2022/12/25 08:49:40;;;;;;;;;;;;;;;10.40;54.84;99664.50;5022671;28;19957;-59
2022/12/25 08:52:06;;;;;;;;;;;;;;;10.57;53.65;99710.53;5023255;28;19960;-59
2022/12/25 08:54:33;;;;;;;;;;;;;;;10.75;54.61;99733.34;5022973;28;19921;-59
2022/12/25 08:56:58;;;;;;;;;;;;;;;10.63;54.89;99721.56;5022687;28;19917;-59
2022/12/25 08:59:24;;;;;;;;;;;;;;;10.94;54.93;99733.78;5019466;28;19963;-59
2022/12/25 09:01:49;;;;;;;;;;;;;;;10.63;57.22;99713.00;5022167;28;19947;-58
2022/12/25 09:04:14;;;;;;;;;;;;;;;10.89;55.68;99744.19;5022369;28;19931;-58
2022/12/25 09:06:39;;;;;;;;;;;;;;;11.09;56.54;99732.59;5023434;28;19920;-59
2022/12/25 09:09:05;;;;;;;;;;;;;;;10.67;58.99;99700.00;5022491;28;20394;-58
2022/12/25 09:11:30;;;;;;;;;;;;;;;10.73;57.03;99716.22;5022222;28;19939;-59
2022/12/25 09:13:55;;;;;;;;;;;;;;;11.15;56.67;99735.03;5020117;28;19965;-59
2022/12/25 09:16:21;;;;;;;;;;;;;;;11.10;57.47;99711.09;5023231;28;19940;-58
2022/12/25 09:18:46;;;;;;;;;;;;;;;11.04;58.21;99677.75;5021170;28;20330;-58
2022/12/25 09:21:12;;;;;;;;;;;;;;;11.02;58.18;99664.88;5022687;28;20643;-59
2022/12/25 09:23:37;;;;;;;;;;;;;;;11.05;57.12;99684.56;5022980;28;19921;-58
2022/12/25 09:26:03;;;;;;;;;;;;;;;10.93;56.99;99696.03;5022577;28;19924;-58
2022/12/25 09:28:28;;;;;;;;;;;;;;;10.71;56.97;99695.63;5020557;28;19924;-58
2022/12/25 09:30:54;;;;;;;;;;;;;;;11.16;54.83;99734.16;5023396;28;19929;-59
2022/12/25 09:33:19;;;;;;;;;;;;;;;11.07;56.59;99722.31;5023211;28;19921;-56
2022/12/25 09:35:54;;;;;;;;;;;;;;;11.23;56.24;99714.25;5023175;28;20741;-56
2022/12/25 09:38:19;;;;;;;;;;;;;;;10.92;57.13;99683.16;5022179;28;19924;-57
2022/12/25 09:40:44;;;;;;;;;;;;;;;10.94;56.62;99681.41;5024159;28;19921;-57
2022/12/25 09:43:09;;;;;;;;;;;;;;;10.84;56.69;99663.56;5023634;28;19929;-57
2022/12/25 09:45:35;;;;;;;;;;;;;;;11.12;54.11;99674.97;5022670;28;19936;-58
2022/12/25 09:48:00;;;;;;;;;;;;;;;11.26;54.78;99668.59;5038772;28;19917;-60
2022/12/25 09:50:37;;;;;;;;;;;;;;;10.97;54.40;99661.56;5021863;28;19928;-60
2022/12/25 09:53:11;;;;;;;;;;;;;;;10.99;54.52;99682.13;5021885;28;19960;-60
2022/12/25 09:55:37;;;;;;;;;;;;;;;11.04;55.27;99700.94;5022558;28;19956;-61
2022/12/25 09:58:07;;;;;;;;;;;;;;;11.23;53.90;99730.56;5004910;28;20445;-63
2022/12/25 10:00:56;;;;;;;;;;;;;;;11.01;56.36;99711.31;5021726;28;19925;-62
2022/12/25 10:03:40;;;;;;;;;;;;;;;10.97;55.49;99712.25;5014165;28;19927;-62
2022/12/25 10:06:07;;;;;;;;;;;;;;;11.36;55.46;99751.75;5023100;28;20398;-62
2022/12/25 10:08:38;;;;;;;;;;;;;;;11.78;55.80;99758.50;5020359;28;19921;-62
2022/12/25 10:11:09;;;;;;;;;;;;;;;11.65;57.33;99727.81;5021774;28;20306;-62
2022/12/25 10:13:53;;;;;;;;;;;;;;;11.81;56.72;99706.81;5020194;28;19917;-62
2022/12/25 10:16:39;;;;;;;;;;;;;;;11.70;56.15;99674.41;5022272;28;19967;-61
2022/12/25 10:19:10;;;;;;;;;;;;;;;12.31;55.57;99658.97;5018821;28;19932;-62
2022/12/25 10:21:35;;;;;;;;;;;;;;;12.37;60.28;99603.75;5021161;28;19955;-61
2022/12/25 10:24:17;;;;;;;;;;;;;;;12.36;63.03;99586.53;5020885;28;19956;-61
2022/12/25 10:26:42;;;;;;;;;;;;;;;12.45;67.21;99568.22;5020696;28;20274;-61
2022/12/25 10:29:15;;;;;;;;;;;;;;;12.46;70.13;99541.47;5019984;28;19920;-61
2022/12/25 10:31:42;;;;;;;;;;;;;;;12.31;71.54;99516.09;5023015;28;20595;-63
2022/12/25 10:34:08;;;;;;;;;;;;;;;12.02;70.14;99507.53;5020016;28;20579;-62
2022/12/25 10:36:33;;;;;;;;;;;;;;;11.55;70.70;99498.53;5023582;28;19936;-64
2022/12/25 10:38:58;;;;;;;;;;;;;;;12.11;62.07;99564.03;5020926;28;20429;-62
2022/12/25 10:41:42;;;;;;;;;;;;;;;11.97;64.10;99558.41;5021739;28;19916;-62
2022/12/25 10:44:12;;;;;;;;;;;;;;;12.59;63.33;99572.94;5022176;28;19917;-62
2022/12/25 10:46:49;;;;;;;;;;;;;;;12.34;67.53;99531.53;5087404;27;20423;-62
2022/12/25 10:49:14;;;;;;;;;;;;;;;12.38;66.31;99527.94;5091953;28;19927;-60
2022/12/25 10:51:39;;;;;;;;;;;;;;;11.65;65.03;99490.47;5086952;28;19916;-61
2022/12/25 10:54:34;;;;;;;;;;;;;;;11.07;60.67;99503.22;5088155;28;19920;-61
2022/12/25 10:57:11;;;;;;;;;;;;;;;11.42;54.19;99578.81;5075181;28;19920;-61
2022/12/25 10:59:44;;;;;;;;;;;;;;;10.98;54.97;99590.25;5086894;28;19945;-61
2022/12/25 11:02:14;;;;;;;;;;;;;;;11.15;53.37;99649.13;5085946;28;19924;-60
2022/12/25 11:04:39;;;;;;;;;;;;;;;11.01;55.61;99672.63;5083424;28;19924;-61
2022/12/25 11:07:05;;;;;;;;;;;;;;;11.04;57.56;99711.25;5087929;28;20384;-62
2022/12/25 11:09:30;;;;;;;;;;;;;;;11.17;58.48;99742.75;5085242;28;20603;-61
2022/12/25 11:11:55;;;;;;;;;;;;;;;10.83;63.02;99751.19;5088682;28;20423;-61
2022/12/25 11:14:21;;;;;;;;;;;;;;;11.07;63.54;99801.38;5081674;28;20011;-61
2022/12/25 11:16:47;;;;;;;;;;;;;;;11.22;65.54;99813.97;5087079;28;20003;-60
2022/12/25 11:19:22;;;;;;;;;;;;;;;11.55;64.92;99845.03;5083708;28;19927;-61
2022/12/25 11:21:51;;;;;;;;;;;;;;;11.16;66.32;99826.13;5086882;28;19938;-60
2022/12/25 11:24:18;;;;;;;;;;;;;;;11.59;66.05;99867.31;5084318;28;19925;-60
2022/12/25 11:26:54;;;;;;;;;;;;;;;11.19;67.77;99832.06;5086733;28;19920;-61
2022/12/25 11:29:35;;;;;;;;;;;;;;;11.55;68.21;99850.19;5084800;28;19923;-61
2022/12/25 11:32:01;;;;;;;;;;;;;;;11.17;70.15;99823.50;5086532;28;19989;-60
2022/12/25 11:34:30;;;;;;;;;;;;;;;11.51;69.46;99853.72;5086605;28;20011;-60
2022/12/25 11:36:56;;;;;;;;;;;;;;;11.14;70.35;99823.56;5087801;28;19977;-61
2022/12/25 11:39:30;;;;;;;;;;;;;;;11.43;69.55;99827.25;5087321;28;19920;-61
2022/12/25 11:42:15;;;;;;;;;;;;;;;11.51;69.04;99828.75;5084133;28;19963;-60
2022/12/25 11:44:48;;;;;;;;;;;;;;;11.49;69.81;99812.50;5087185;28;19924;-61
2022/12/25 11:47:24;;;;;;;;;;;;;;;11.33;69.76;99794.81;5085281;28;19915;-61
2022/12/25 11:49:51;;;;;;;;;;;;;;;11.41;69.88;99796.34;5082937;28;20001;-60
2022/12/25 11:52:17;;;;;;;;;;;;;;;11.69;68.98;99811.19;5088102;28;20396;-60
2022/12/25 11:54:49;;;;;;;;;;;;;;;11.75;68.43;99802.47;5084999;28;19922;-61
2022/12/25 11:57:14;;;;;;;;;;;;;;;11.73;67.25;99780.09;5077512;28;19924;-60
2022/12/25 11:59:47;;;;;;;;;;;;;;;11.17;70.07;99728.09;5072688;28;19927;-60
2022/12/25 12:02:33;;;;;;;;;;;;;;;11.82;67.40;99758.38;5070948;28;19931;-61
2022/12/25 12:05:10;;;;;;;;;;;;;;;11.37;68.39;99722.50;5073677;28;19924;-60
2022/12/25 12:07:36;;;;;;;;;;;;;;;11.37;68.03;99724.25;5074522;28;19941;-60
2022/12/25 12:10:15;;;;;;;;;;;;;;;11.55;67.01;99726.38;5073098;28;19929;-60
2022/12/25 12:12:46;;;;;;;;;;;;;;;11.53;68.39;99717.81;5072911;28;19966;-60
2022/12/25 12:15:21;;;;;;;;;;;;;;;11.59;68.32;99704.78;5072705;28;19915;-60
2022/12/25 12:17:46;;;;;;;;;;;;;;;11.57;67.03;99683.31;5069740;28;19921;-60
2022/12/25 12:20:31;;;;;;;;;;;;;;;11.70;66.82;99674.41;5071070;28;19931;-60
2022/12/25 12:22:57;;;;;;;;;;;;;;;11.46;66.73;99644.06;5073183;28;19923;-61
2022/12/25 12:25:22;;;;;;;;;;;;;;;11.45;66.33;99655.28;5073609;28;19930;-60
2022/12/25 12:27:54;;;;;;;;;;;;;;;11.59;66.65;99654.94;5074305;28;19920;-61
2022/12/25 12:30:23;;;;;;;;;;;;;;;11.60;66.29;99672.91;5068602;28;20020;-60
2022/12/25 12:32:49;;;;;;;;;;;;;;;12.11;64.75;99710.34;5073149;28;19916;-60
2022/12/25 12:35:19;;;;;;;;;;;;;;;11.97;64.88;99684.91;5071352;28;19921;-62
2022/12/25 12:37:45;;;;;;;;;;;;;;;11.49;66.25;99644.84;5073839;28;19920;-60
2022/12/25 12:40:27;;;;;;;;;;;;;;;11.33;66.14;99658.13;5054538;28;20452;-60
2022/12/25 12:42:53;;;;;;;;;;;;;;;11.58;66.76;99674.69;5069456;28;19920;-61
2022/12/25 12:45:19;;;;;;;;;;;;;;;11.37;67.14;99644.28;5071337;28;20223;-61
2022/12/25 12:47:48;;;;;;;;;;;;;;;11.68;65.49;99649.53;5072437;28;20010;-60
2022/12/25 12:50:32;;;;;;;;;;;;;;;11.68;65.87;99655.53;5073081;28;19977;-60
2022/12/25 12:52:58;;;;;;;;;;;;;;;11.40;67.72;99639.88;5072075;28;19921;-61
2022/12/25 12:55:27;;;;;;;;;;;;;;;11.78;66.97;99655.28;5070970;28;19912;-60
2022/12/25 12:57:56;;;;;;;;;;;;;;;11.45;69.12;99634.66;5072256;28;20007;-61
2022/12/25 13:00:22;;;;;;;;;;;;;;;11.45;68.99;99643.22;5070046;28;19920;-61
2022/12/25 13:02:47;;;;;;;;;;;;;;;11.82;68.69;99680.97;5072188;28;19932;-61
2022/12/25 13:05:21;;;;;;;;;;;;;;;11.24;70.83;99660.06;5072922;28;19932;-60
2022/12/25 13:07:53;;;;;;;;;;;;;;;11.49;71.81;99693.84;5073443;28;19932;-61
2022/12/25 13:10:22;;;;;;;;;;;;;;;11.67;71.84;99713.16;5068647;28;19920;-62
2022/12/25 13:12:51;;;;;;;;;;;;;;;11.65;72.10;99707.19;5072028;28;20401;-60
2022/12/25 13:15:17;;;;;;;;;;;;;;;11.46;72.09;99677.59;5070735;28;20026;-60
2022/12/25 13:17:42;;;;;;;;;;;;;;;11.77;71.37;99700.03;5067239;28;20014;-60
2022/12/25 13:20:11;;;;;;;;;;;;;;;11.58;73.41;99681.59;5069146;28;19924;-60
2022/12/25 13:22:36;;;;;;;;;;;;;;;11.37;74.55;99670.09;5069604;28;20449;-60
2022/12/25 13:25:06;;;;;;;;;;;;;;;12.00;73.07;99728.72;5070974;28;19962;-60
2022/12/25 13:27:32;;;;;;;;;;;;;;;11.61;75.24;99695.28;5069011;28;20393;-60
2022/12/25 13:29:57;;;;;;;;;;;;;;;11.62;74.74;99696.13;5069972;28;19920;-61
2022/12/25 13:32:24;;;;;;;;;;;;;;;11.37;76.65;99676.06;5070735;28;19931;-60
2022/12/25 13:34:50;;;;;;;;;;;;;;;11.83;74.67;99705.03;5070805;28;19924;-59
2022/12/25 13:37:15;;;;;;;;;;;;;;;11.89;74.09;99684.28;5070656;28;19920;-60
2022/12/25 13:40:00;;;;;;;;;;;;;;;11.93;73.74;99672.97;5047915;28;19916;-60
2022/12/25 13:42:35;;;;;;;;;;;;;;;12.03;72.75;99666.66;5070649;28;19920;-60
2022/12/25 13:45:05;;;;;;;;;;;;;;;11.88;72.57;99661.91;5070465;28;19931;-61
2022/12/25 13:47:34;;;;;;;;;;;;;;;12.23;71.13;99683.34;5070207;28;19920;-60
2022/12/25 13:50:01;;;;;;;;;;;;;;;12.51;69.21;99668.75;5072609;28;20479;-60
2022/12/25 13:52:31;;;;;;;;;;;;;;;12.31;68.35;99609.91;5047754;28;20007;-61
2022/12/25 13:54:57;;;;;;;;;;;;;;;11.96;68.12;99586.88;5074628;28;19923;-60
2022/12/25 13:57:24;;;;;;;;;;;;;;;12.32;67.15;99597.88;5072979;28;19971;-61
2022/12/25 13:59:49;;;;;;;;;;;;;;;12.55;66.11;99608.34;5069304;28;19959;-60
2022/12/25 14:02:17;;;;;;;;;;;;;;;12.24;67.05;99556.75;5073883;28;20061;-60
2022/12/25 14:04:43;;;;;;;;;;;;;;;12.05;65.86;99517.75;5068648;28;19965;-60
2022/12/25 14:07:08;;;;;;;;;;;;;;;11.72;67.67;99504.03;5069625;28;19944;-60
2022/12/25 14:09:34;;;;;;;;;;;;;;;11.94;67.41;99537.88;5069806;28;19985;-60
2022/12/25 14:11:59;;;;;;;;;;;;;;;12.27;67.49;99571.31;5070627;28;19932;-60
2022/12/25 14:14:24;;;;;;;;;;;;;;;12.20;66.88;99562.94;5071887;28;19966;-60
2022/12/25 14:16:52;;;;;;;;;;;;;;;12.87;64.23;99591.00;5068094;28;19952;-60
2022/12/25 14:19:35;;;;;;;;;;;;;;;12.98;62.77;99576.00;5069802;28;19920;-60
2022/12/25 14:22:19;;;;;;;;;;;;;;;13.09;58.26;99525.66;5072335;28;19921;-60
2022/12/25 14:24:45;;;;;;;;;;;;;;;13.30;53.10;99475.81;5071255;28;20023;-60
2022/12/25 14:27:18;;;;;;;;;;;;;;;13.17;52.86;99413.28;5069180;28;19973;-60
2022/12/25 14:29:44;;;;;;;;;;;;;;;13.09;52.61;99375.66;5069087;28;20058;-60
2022/12/25 14:32:13;;;;;;;;;;;;;;;13.27;52.58;99354.31;5070979;28;19920;-60
2022/12/25 14:34:39;;;;;;;;;;;;;;;12.97;55.41;99326.09;5068602;28;20013;-61
2022/12/25 14:37:04;;;;;;;;;;;;;;;13.24;53.49;99319.97;5069969;28;20011;-60